Time;durP1;ratioP1;P1;durP2;ratioP2;P2;SDS_P1;SDS_P2;PMS_P1;PMS_P2;Temp;Humidity;BMP_temperature;BMP_pressure;BME280_temperature;BME280_humidity;BME280_pressure;Samples;Min_cycle;Max_cycle;Signal;HPM_P1;HPM_P2
2023/12/13 00:02:22;;;;;;;4.27;3.87;;;16.50;66.90;;;;;;5072398;28;20531;-78
2023/12/13 00:04:50;;;;;;;5.50;4.20;;;16.50;66.80;;;;;;5069422;28;20477;-78
2023/12/13 00:07:19;;;;;;;5.00;3.57;;;16.50;66.80;;;;;;5081027;28;20446;-78
2023/12/13 00:09:47;;;;;;;4.40;3.97;;;16.50;66.60;;;;;;5065592;28;20455;-77
2023/12/13 00:12:16;;;;;;;4.43;4.03;;;16.50;66.80;;;;;;5072261;28;20540;-77
2023/12/13 00:14:44;;;;;;;5.87;3.63;;;16.40;67.00;;;;;;5072296;28;20449;-77
2023/12/13 00:17:14;;;;;;;7.33;4.40;;;16.50;66.70;;;;;;5090081;28;20472;-77
2023/12/13 00:19:44;;;;;;;7.77;4.57;;;16.50;67.00;;;;;;5094954;22;20485;-82
2023/12/13 00:22:12;;;;;;;4.93;4.23;;;16.50;67.00;;;;;;5063589;28;20498;-81
2023/12/13 00:24:40;;;;;;;5.47;3.80;;;16.50;66.90;;;;;;5064832;28;20439;-82
2023/12/13 00:27:09;;;;;;;12.23;4.20;;;16.50;66.80;;;;;;5067848;28;20446;-82
2023/12/13 00:29:43;;;;;;;7.20;3.93;;;16.50;66.90;;;;;;5074851;28;20469;-81
2023/12/13 00:32:16;;;;;;;7.27;4.10;;;16.50;66.80;;;;;;5081186;28;20437;-81
2023/12/13 00:34:46;;;;;;;7.70;3.83;;;16.50;67.00;;;;;;5095478;28;20452;-81
2023/12/13 00:37:14;;;;;;;4.57;3.90;;;16.50;67.00;;;;;;5092429;28;20473;-82
2023/12/13 00:39:43;;;;;;;5.47;3.80;;;16.50;66.80;;;;;;5096256;28;20461;-82
2023/12/13 00:42:12;;;;;;;4.10;3.77;;;16.50;67.00;;;;;;5072764;28;20476;-81
2023/12/13 00:44:42;;;;;;;5.07;3.80;;;16.50;67.10;;;;;;5076167;28;20442;-82
2023/12/13 00:47:10;;;;;;;4.67;4.07;;;16.50;66.90;;;;;;5071978;28;20454;-82
2023/12/13 00:49:40;;;;;;;5.83;3.50;;;16.50;66.90;;;;;;5062713;28;20465;-84
2023/12/13 00:52:10;;;;;;;4.27;3.90;;;16.50;67.00;;;;;;5075513;28;20452;-82
2023/12/13 00:54:40;;;;;;;5.53;4.00;;;16.50;67.20;;;;;;5075462;28;20456;-82
2023/12/13 00:57:09;;;;;;;5.03;3.57;;;16.50;66.90;;;;;;5066627;28;20454;-82
2023/12/13 00:59:37;;;;;;;4.43;3.43;;;16.50;67.10;;;;;;5065576;28;20466;-82
2023/12/13 01:02:09;;;;;;;4.47;3.90;;;16.60;67.30;;;;;;5066838;28;20515;-82
2023/12/13 01:04:38;;;;;;;7.73;4.17;;;16.60;66.90;;;;;;5063519;28;20450;-82
2023/12/13 01:07:07;;;;;;;5.53;3.70;;;16.50;67.00;;;;;;5060635;28;20468;-82
2023/12/13 01:09:40;;;;;;;6.70;4.23;;;16.60;67.10;;;;;;5062640;28;20466;-82
2023/12/13 01:12:09;;;;;;;5.47;4.00;;;16.60;67.20;;;;;;5069804;28;20453;-82
2023/12/13 01:14:46;;;;;;;4.10;3.53;;;16.60;67.40;;;;;;5068606;28;20437;-82
2023/12/13 01:17:15;;;;;;;3.83;3.43;;;16.60;67.30;;;;;;5074143;28;20476;-83
2023/12/13 01:19:43;;;;;;;5.47;3.87;;;16.60;67.00;;;;;;5074596;28;20457;-82
2023/12/13 01:22:11;;;;;;;3.37;3.17;;;16.60;67.10;;;;;;5086165;28;20510;-82
2023/12/13 01:24:46;;;;;;;4.03;3.60;;;16.50;67.20;;;;;;5087763;28;20454;-82
2023/12/13 01:27:21;;;;;;;3.50;3.20;;;16.60;67.20;;;;;;5073285;28;20437;-83
2023/12/13 01:29:56;;;;;;;10.10;3.87;;;16.60;67.20;;;;;;5075196;28;20462;-83
2023/12/13 01:32:24;;;;;;;4.23;3.50;;;16.60;67.10;;;;;;5068035;28;20520;-83
2023/12/13 01:34:54;;;;;;;3.47;3.17;;;16.60;67.30;;;;;;5075614;28;20461;-83
2023/12/13 01:37:27;;;;;;;3.77;3.53;;;16.60;67.30;;;;;;5075919;28;20552;-83
2023/12/13 01:40:08;;;;;;;11.50;3.70;;;16.60;67.30;;;;;;5075209;28;20471;-82
2023/12/13 01:42:48;;;;;;;4.00;3.60;;;16.60;67.40;;;;;;5073772;28;20518;-82
2023/12/13 01:45:16;;;;;;;3.50;3.20;;;16.60;67.40;;;;;;5077633;28;20441;-81
2023/12/13 01:47:45;;;;;;;4.87;3.77;;;16.60;67.10;;;;;;5079191;28;20456;-83
2023/12/13 01:50:17;;;;;;;4.10;3.73;;;16.50;67.40;;;;;;5080671;28;20461;-82
2023/12/13 01:52:47;;;;;;;5.57;3.70;;;16.60;67.40;;;;;;5080260;28;20468;-83
2023/12/13 01:55:17;;;;;;;4.40;3.40;;;16.60;67.40;;;;;;5079622;28;20463;-83
2023/12/13 01:57:46;;;;;;;3.73;3.40;;;16.60;67.40;;;;;;5080441;28;20444;-83
2023/12/13 02:00:15;;;;;;;3.93;3.63;;;16.60;68.10;;;;;;5092238;28;20488;-83
2023/12/13 02:02:43;;;;;;;4.33;3.63;;;16.60;67.30;;;;;;5102408;28;20510;-83
2023/12/13 02:05:12;;;;;;;3.50;3.20;;;16.60;67.20;;;;;;5102690;28;20559;-83
2023/12/13 02:07:40;;;;;;;3.77;3.47;;;16.60;67.30;;;;;;5102144;28;20448;-84
2023/12/13 02:10:09;;;;;;;6.60;3.73;;;16.60;67.40;;;;;;5099200;28;20468;-82
2023/12/13 02:12:39;;;;;;;4.43;3.50;;;16.60;67.30;;;;;;5099380;28;20448;-82
2023/12/13 02:15:08;;;;;;;3.63;3.10;;;16.60;67.50;;;;;;5097670;28;20448;-82
2023/12/13 02:17:36;;;;;;;3.70;3.50;;;16.60;67.40;;;;;;5084855;28;20456;-82
2023/12/13 02:20:07;;;;;;;3.30;3.10;;;16.60;67.50;;;;;;5080327;28;20493;-82
2023/12/13 02:22:36;;;;;;;3.67;3.37;;;16.60;67.40;;;;;;5078974;28;20556;-82
2023/12/13 02:25:06;;;;;;;3.90;3.60;;;16.60;67.40;;;;;;5078281;28;20480;-83
2023/12/13 02:27:34;;;;;;;7.70;3.70;;;16.60;67.50;;;;;;5078704;28;20472;-83
2023/12/13 02:30:04;;;;;;;4.20;3.70;;;16.60;67.40;;;;;;5078768;28;20473;-82
2023/12/13 02:32:33;;;;;;;5.97;3.83;;;16.60;68.10;;;;;;5082369;28;20423;-82
2023/12/13 02:35:02;;;;;;;3.50;3.23;;;16.60;67.20;;;;;;5091710;28;20465;-81
2023/12/13 02:37:31;;;;;;;4.70;3.40;;;16.60;67.40;;;;;;5100203;28;20444;-81
2023/12/13 02:40:10;;;;;;;5.87;3.77;;;16.60;67.70;;;;;;5099769;28;20475;-83
2023/12/13 02:42:38;;;;;;;3.87;3.57;;;16.60;67.60;;;;;;5099393;28;20472;-82
2023/12/13 02:45:09;;;;;;;5.33;3.60;;;16.60;67.60;;;;;;5098579;28;20971;-82
2023/12/13 02:47:41;;;;;;;5.20;3.70;;;16.60;67.40;;;;;;5099568;28;20469;-81
2023/12/13 02:50:11;;;;;;;4.03;3.07;;;16.60;67.50;;;;;;5086113;28;20531;-82
2023/12/13 02:52:39;;;;;;;5.03;3.80;;;16.60;67.50;;;;;;5090619;28;20437;-82
2023/12/13 02:55:10;;;;;;;4.67;3.37;;;16.60;67.80;;;;;;5097850;28;20445;-82
2023/12/13 02:57:41;;;;;;;5.53;3.50;;;16.60;67.60;;;;;;5096565;28;20448;-82
2023/12/13 03:00:11;;;;;;;3.43;3.23;;;16.60;67.20;;;;;;5092305;28;20481;-81
2023/12/13 03:02:42;;;;;;;4.20;3.40;;;16.60;67.50;;;;;;5091069;28;20464;-82
2023/12/13 03:05:10;;;;;;;4.27;3.87;;;16.60;67.50;;;;;;5097200;28;20505;-82
2023/12/13 03:07:40;;;;;;;3.30;3.07;;;16.60;67.30;;;;;;5097648;28;20506;-80
2023/12/13 03:10:10;;;;;;;3.60;3.30;;;16.60;67.60;;;;;;5097412;28;20455;-82
2023/12/13 03:12:39;;;;;;;3.20;3.00;;;16.60;67.50;;;;;;5096861;28;20513;-82
2023/12/13 03:15:08;;;;;;;3.40;3.20;;;16.60;67.50;;;;;;5086977;28;20454;-81
2023/12/13 03:17:37;;;;;;;3.70;3.40;;;16.60;67.50;;;;;;5083873;28;20502;-81
2023/12/13 03:20:07;;;;;;;4.00;3.67;;;16.60;67.40;;;;;;5076335;28;20470;-82
2023/12/13 03:22:35;;;;;;;3.53;3.33;;;16.60;67.60;;;;;;5076174;28;20560;-81
2023/12/13 03:25:04;;;;;;;3.80;3.40;;;16.60;67.70;;;;;;5075851;28;20460;-82
2023/12/13 03:27:35;;;;;;;3.27;3.07;;;16.60;67.50;;;;;;5076178;28;20441;-81
2023/12/13 03:30:05;;;;;;;3.70;3.40;;;16.70;67.50;;;;;;5075701;28;20557;-82
2023/12/13 03:32:36;;;;;;;3.50;3.20;;;16.60;67.50;;;;;;5075507;28;20452;-81
2023/12/13 03:35:08;;;;;;;3.07;2.80;;;16.60;67.50;;;;;;5084112;28;20446;-82
2023/12/13 03:37:42;;;;;;;3.37;3.17;;;16.60;67.60;;;;;;5076001;28;20528;-83
2023/12/13 03:40:13;;;;;;;3.30;3.10;;;16.70;67.70;;;;;;5075589;28;20481;-82
2023/12/13 03:42:43;;;;;;;3.50;3.30;;;16.70;67.50;;;;;;5075180;28;20492;-79
2023/12/13 03:45:11;;;;;;;4.10;3.50;;;16.70;67.50;;;;;;5075267;28;20444;-81
2023/12/13 03:47:39;;;;;;;3.90;3.60;;;16.60;67.60;;;;;;5076028;28;20442;-81
2023/12/13 03:50:09;;;;;;;5.10;3.70;;;16.70;67.50;;;;;;5075443;28;20474;-81
2023/12/13 03:52:38;;;;;;;3.77;3.47;;;16.60;67.50;;;;;;5083373;28;20453;-81
2023/12/13 03:55:07;;;;;;;3.80;3.50;;;16.70;67.70;;;;;;5075434;28;20536;-81
2023/12/13 03:57:35;;;;;;;3.27;3.07;;;16.70;67.50;;;;;;5075899;28;20449;-80
2023/12/13 04:00:09;;;;;;;3.80;3.50;;;16.60;67.80;;;;;;5075365;28;20469;-80
2023/12/13 04:02:37;;;;;;;3.90;3.50;;;16.60;67.70;;;;;;5073634;28;20473;-81
2023/12/13 04:05:06;;;;;;;4.57;3.23;;;16.70;67.80;;;;;;5067834;28;20450;-80
2023/12/13 04:07:34;;;;;;;2.70;2.60;;;16.70;67.80;;;;;;5075294;28;20441;-80
2023/12/13 04:10:04;;;;;;;3.27;3.07;;;16.70;67.80;;;;;;5066563;28;20470;-79
2023/12/13 04:12:33;;;;;;;3.30;3.00;;;16.70;67.70;;;;;;5059209;28;20434;-80
2023/12/13 04:15:01;;;;;;;3.40;3.20;;;16.70;67.60;;;;;;5074787;28;20438;-80
2023/12/13 04:17:30;;;;;;;4.30;3.37;;;16.70;67.80;;;;;;5073190;28;20441;-80
2023/12/13 04:19:58;;;;;;;6.10;3.07;;;16.70;67.60;;;;;;5070663;28;20472;-80
2023/12/13 04:22:26;;;;;;;3.33;3.13;;;16.70;67.50;;;;;;5077465;28;20484;-82
2023/12/13 04:24:55;;;;;;;3.47;3.00;;;16.70;67.70;;;;;;5080037;28;20448;-81
2023/12/13 04:27:23;;;;;;;4.27;3.40;;;16.70;67.50;;;;;;5058795;28;20452;-81
2023/12/13 04:29:51;;;;;;;3.33;3.03;;;16.70;67.90;;;;;;5067718;28;20433;-82
2023/12/13 04:32:19;;;;;;;3.37;3.17;;;16.70;67.70;;;;;;5077730;28;20426;-82
2023/12/13 04:34:49;;;;;;;3.33;3.13;;;16.70;67.70;;;;;;5067958;28;20503;-83
2023/12/13 04:37:41;;;;;;;5.27;4.00;;;16.70;67.60;;;;;;5077254;28;20460;-82
2023/12/13 04:40:15;;;;;;;3.40;3.20;;;16.70;67.70;;;;;;5068357;28;20478;-82
2023/12/13 04:42:43;;;;;;;4.10;3.80;;;16.70;67.50;;;;;;5063021;28;20500;-81
2023/12/13 04:45:11;;;;;;;3.23;3.03;;;16.70;67.70;;;;;;5057823;28;20438;-80
2023/12/13 04:47:39;;;;;;;3.53;3.33;;;16.70;67.80;;;;;;5056511;28;20455;-80
2023/12/13 04:50:11;;;;;;;3.90;3.47;;;16.70;67.90;;;;;;5062011;28;20450;-82
2023/12/13 04:52:39;;;;;;;4.10;3.70;;;16.70;67.90;;;;;;5071378;28;20478;-82
2023/12/13 04:55:08;;;;;;;3.73;3.43;;;16.70;67.70;;;;;;5061048;28;20549;-82
2023/12/13 04:57:36;;;;;;;4.10;3.37;;;16.70;67.60;;;;;;5070811;28;20450;-83
2023/12/13 05:00:06;;;;;;;3.27;3.03;;;16.70;67.90;;;;;;5062356;28;20505;-81
2023/12/13 05:02:36;;;;;;;2.93;2.73;;;16.80;68.00;;;;;;5057515;28;20450;-81
2023/12/13 05:05:04;;;;;;;2.97;2.83;;;16.70;67.60;;;;;;5074812;28;20438;-82
2023/12/13 05:07:34;;;;;;;7.00;3.93;;;16.70;67.90;;;;;;5075643;28;20491;-83
2023/12/13 05:10:06;;;;;;;3.53;3.17;;;16.70;67.70;;;;;;5071941;28;20544;-82
2023/12/13 05:12:34;;;;;;;3.40;3.10;;;16.70;67.80;;;;;;5084236;28;20468;-83
2023/12/13 05:15:03;;;;;;;3.60;3.30;;;16.80;67.90;;;;;;5061990;28;20473;-82
2023/12/13 05:17:32;;;;;;;3.83;3.37;;;16.80;67.80;;;;;;5063014;28;20481;-81
2023/12/13 05:20:03;;;;;;;4.60;3.53;;;16.70;67.70;;;;;;5075265;28;20475;-82
2023/12/13 05:22:40;;;;;;;3.90;3.60;;;16.80;67.90;;;;;;5057480;28;20466;-82
2023/12/13 05:25:09;;;;;;;4.00;3.70;;;16.80;67.90;;;;;;5075006;28;20437;-82
2023/12/13 05:27:38;;;;;;;4.00;3.70;;;16.80;67.90;;;;;;5073591;28;20458;-82
2023/12/13 05:30:23;;;;;;;3.70;3.40;;;16.80;67.50;;;;;;5082345;28;20469;-82
2023/12/13 05:32:58;;;;;;;3.70;3.40;;;16.80;68.00;;;;;;5083191;28;20449;-81
2023/12/13 05:35:32;;;;;;;3.77;3.47;;;16.80;67.90;;;;;;5094338;28;20452;-82
2023/12/13 05:38:09;;;;;;;4.20;3.60;;;16.80;68.00;;;;;;5083156;28;20437;-82
2023/12/13 05:40:39;;;;;;;4.20;3.90;;;16.80;67.80;;;;;;5075880;28;20507;-83
2023/12/13 05:43:48;;;;;;;4.57;4.00;;;16.70;67.70;;;;;;5075680;28;20462;-82
2023/12/13 05:46:19;;;;;;;4.53;4.13;;;16.80;67.90;;;;;;5093523;28;20445;-82
2023/12/13 05:48:48;;;;;;;7.07;5.00;;;16.80;67.90;;;;;;5082979;28;20532;-82
2023/12/13 05:51:17;;;;;;;6.67;5.10;;;16.80;67.70;;;;;;5074693;28;20438;-82
2023/12/13 05:53:46;;;;;;;7.07;5.30;;;16.80;67.80;;;;;;5082256;28;20449;-82
2023/12/13 05:56:15;;;;;;;10.57;5.90;;;16.80;67.90;;;;;;5081655;28;20437;-82
2023/12/13 05:58:44;;;;;;;7.97;6.43;;;16.80;67.60;;;;;;5080336;28;20472;-82
2023/12/13 06:01:12;;;;;;;8.63;6.63;;;16.80;67.70;;;;;;5086116;28;20469;-83
2023/12/13 06:03:41;;;;;;;7.90;6.77;;;16.80;67.90;;;;;;5088280;28;20469;-82
2023/12/13 06:06:09;;;;;;;9.10;7.07;;;16.80;67.90;;;;;;5088054;28;20445;-82
2023/12/13 06:08:37;;;;;;;8.80;6.80;;;16.80;67.60;;;;;;5080003;28;20446;-82
2023/12/13 06:11:08;;;;;;;9.57;7.00;;;16.80;67.80;;;;;;5079808;28;20470;-82
2023/12/13 06:13:36;;;;;;;8.30;6.77;;;16.80;67.80;;;;;;5069686;28;20449;-82
2023/12/13 06:16:06;;;;;;;8.43;6.90;;;16.80;67.90;;;;;;5078741;28;20454;-82
2023/12/13 06:18:34;;;;;;;10.03;7.50;;;16.80;67.80;;;;;;5072080;28;20451;-82
2023/12/13 06:21:02;;;;;;;10.00;7.67;;;16.80;67.80;;;;;;5085288;28;20491;-82
2023/12/13 06:23:30;;;;;;;8.93;7.50;;;16.80;67.80;;;;;;5065012;28;20473;-81
2023/12/13 06:25:58;;;;;;;9.20;7.20;;;16.80;67.90;;;;;;5079855;28;20439;-82
2023/12/13 06:28:28;;;;;;;8.50;7.10;;;16.80;67.90;;;;;;5067227;28;20451;-82
2023/12/13 06:34:58;;;;;;;10.43;7.23;;;16.80;67.70;;;;;;5075682;28;20438;-81
2023/12/13 06:37:29;;;;;;;11.13;8.13;;;16.80;67.90;;;;;;5081360;28;20437;-82
2023/12/13 06:40:44;;;;;;;11.27;7.70;;;16.80;68.20;;;;;;5080724;28;20545;-84
2023/12/13 06:46:33;;;;;;;11.50;7.60;;;16.80;67.80;;;;;;5077510;28;20445;-82
2023/12/13 06:49:18;;;;;;;13.77;8.23;;;16.90;68.10;;;;;;5088379;28;20472;-82
2023/12/13 06:52:16;;;;;;;9.33;7.10;;;16.80;67.90;;;;;;5071859;28;20490;-84
2023/12/13 06:55:03;;;;;;;10.10;8.13;;;16.80;67.90;;;;;;5069500;28;20456;-84
2023/12/13 06:57:54;;;;;;;9.43;7.47;;;16.80;68.10;;;;;;5081474;28;20441;-83
2023/12/13 07:00:32;;;;;;;10.00;7.20;;;16.90;68.20;;;;;;5081083;28;20496;-80
2023/12/13 07:03:29;;;;;;;10.83;7.77;;;16.80;68.20;;;;;;5073565;28;20421;-83
2023/12/13 07:05:57;;;;;;;10.37;7.50;;;16.80;68.00;;;;;;5067363;28;20442;-84
2023/12/13 07:08:25;;;;;;;10.20;7.50;;;16.80;68.00;;;;;;5076077;28;20531;-83
2023/12/13 07:10:54;;;;;;;12.53;7.80;;;16.80;68.30;;;;;;5075016;28;20471;-84
2023/12/13 07:13:28;;;;;;;11.10;7.50;;;16.80;68.40;;;;;;5076061;28;20454;-83
2023/12/13 07:16:02;;;;;;;10.07;7.37;;;16.90;68.20;;;;;;5082243;28;20445;-83
2023/12/13 07:18:43;;;;;;;11.00;7.30;;;16.80;68.20;;;;;;5082854;28;20475;-83
2023/12/13 07:21:20;;;;;;;8.80;7.13;;;16.90;68.20;;;;;;5083599;28;20500;-84
2023/12/13 07:23:56;;;;;;;10.90;7.67;;;16.90;68.40;;;;;;5078930;28;20462;-83
2023/12/13 07:26:57;;;;;;;9.00;6.97;;;16.80;68.10;;;;;;5082993;28;20452;-84
2023/12/13 07:29:39;;;;;;;8.13;6.77;;;16.80;68.30;;;;;;5082006;28;20524;-83
2023/12/13 07:32:10;;;;;;;14.03;7.67;;;16.90;68.30;;;;;;5094001;28;20810;-82
2023/12/13 07:34:48;;;;;;;10.03;7.10;;;16.90;68.10;;;;;;5102197;28;20440;-83
2023/12/13 07:37:22;;;;;;;8.87;6.50;;;16.90;68.60;;;;;;5102410;28;20437;-83
2023/12/13 07:39:53;;;;;;;9.60;7.23;;;16.90;68.50;;;;;;5084388;28;20503;-82
2023/12/13 07:42:24;;;;;;;10.30;7.70;;;16.90;68.20;;;;;;5078833;28;20442;-82
2023/12/13 07:44:55;;;;;;;8.80;6.53;;;16.90;68.30;;;;;;5078510;28;20465;-83
2023/12/13 07:47:26;;;;;;;9.67;7.60;;;16.90;68.50;;;;;;5085114;28;20507;-83
2023/12/13 07:49:55;;;;;;;9.40;6.77;;;16.90;68.40;;;;;;5100625;28;20460;-82
2023/12/13 07:52:24;;;;;;;11.30;7.60;;;16.90;68.50;;;;;;5094715;28;20560;-83
2023/12/13 07:54:52;;;;;;;10.33;7.40;;;16.90;68.40;;;;;;5058274;28;20438;-82
2023/12/13 07:57:21;;;;;;;10.97;7.80;;;16.90;68.30;;;;;;5057222;28;20450;-83
2023/12/13 07:59:51;;;;;;;8.30;6.80;;;16.90;68.40;;;;;;5075682;28;20465;-82
2023/12/13 08:02:20;;;;;;;8.30;6.37;;;16.90;68.50;;;;;;5074975;28;20453;-82
2023/12/13 08:04:49;;;;;;;10.30;6.60;;;16.90;68.70;;;;;;5074795;28;20550;-82
2023/12/13 08:07:19;;;;;;;8.10;6.60;;;16.90;68.60;;;;;;5074834;28;20507;-82
2023/12/13 08:09:49;;;;;;;6.80;6.10;;;16.90;68.40;;;;;;5075002;28;20468;-82
2023/12/13 08:12:18;;;;;;;8.20;6.83;;;16.80;68.50;;;;;;5074253;28;20441;-81
2023/12/13 08:14:52;;;;;;;10.10;6.90;;;16.90;68.50;;;;;;5074688;28;20658;-82
2023/12/13 08:17:30;;;;;;;7.93;6.40;;;16.80;68.50;;;;;;5076202;28;20449;-83
2023/12/13 08:20:01;;;;;;;8.03;6.23;;;16.90;68.30;;;;;;5087971;28;20476;-83
2023/12/13 08:22:32;;;;;;;8.80;6.37;;;16.80;68.70;;;;;;5100496;28;20452;-81
2023/12/13 08:25:01;;;;;;;8.70;5.83;;;16.90;68.50;;;;;;5102643;28;21013;-83
2023/12/13 08:27:32;;;;;;;6.80;6.10;;;16.90;68.50;;;;;;5099860;28;20436;-83
2023/12/13 08:30:01;;;;;;;6.93;5.53;;;16.80;68.60;;;;;;5097775;28;20491;-83
2023/12/13 08:32:29;;;;;;;6.67;5.83;;;16.90;68.80;;;;;;5077546;28;20446;-83
2023/12/13 08:34:59;;;;;;;9.13;6.77;;;16.90;68.50;;;;;;5077920;28;20450;-82
2023/12/13 08:37:29;;;;;;;6.57;5.53;;;16.90;68.50;;;;;;5078820;28;20457;-83
2023/12/13 08:40:00;;;;;;;7.27;5.87;;;16.90;68.50;;;;;;5097744;28;20528;-83
2023/12/13 08:42:28;;;;;;;7.70;5.90;;;16.90;68.50;;;;;;5099166;28;20417;-82
2023/12/13 08:45:10;;;;;;;6.30;5.70;;;16.90;68.50;;;;;;5096870;28;20498;-81
2023/12/13 08:47:40;;;;;;;7.33;5.67;;;16.90;68.80;;;;;;5078390;28;20446;-83
2023/12/13 08:50:09;;;;;;;8.27;6.00;;;16.90;68.60;;;;;;5077771;28;20457;-83
2023/12/13 08:52:37;;;;;;;6.43;5.80;;;16.90;68.50;;;;;;5078074;28;20454;-84
2023/12/13 08:55:09;;;;;;;6.10;5.40;;;16.90;68.50;;;;;;5078893;28;20464;-82
2023/12/13 08:57:37;;;;;;;6.13;5.50;;;16.90;68.40;;;;;;5080067;28;20452;-83
2023/12/13 09:03:13;;;;;;;5.80;5.30;;;16.90;68.70;;;;;;5058525;28;20438;-84
2023/12/13 09:06:00;;;;;;;6.03;5.30;;;16.90;68.70;;;;;;5060117;28;20473;-83
2023/12/13 09:08:28;;;;;;;6.60;5.33;;;16.90;68.40;;;;;;5058205;28;20442;-83
2023/12/13 09:10:58;;;;;;;5.30;4.80;;;16.90;68.40;;;;;;5058875;28;20474;-83
2023/12/13 09:13:27;;;;;;;5.90;5.30;;;16.90;68.70;;;;;;5057438;28;20457;-83
2023/12/13 09:15:55;;;;;;;6.80;5.33;;;16.90;68.60;;;;;;5056766;28;20442;-82
2023/12/13 09:18:23;;;;;;;6.83;5.23;;;16.80;68.40;;;;;;5056548;28;20472;-82
2023/12/13 09:20:52;;;;;;;5.60;5.10;;;16.90;68.70;;;;;;5056678;28;20473;-83
2023/12/13 09:23:22;;;;;;;6.40;5.20;;;16.90;68.40;;;;;;5056824;28;20451;-81
2023/12/13 09:25:51;;;;;;;5.53;5.03;;;16.90;68.70;;;;;;5056501;28;20466;-82
2023/12/13 09:28:24;;;;;;;5.73;5.13;;;16.90;68.60;;;;;;5058233;28;20525;-79
2023/12/13 09:30:52;;;;;;;5.80;5.20;;;16.90;68.60;;;;;;5056709;28;20545;-82
2023/12/13 09:33:20;;;;;;;5.87;4.90;;;16.90;68.70;;;;;;5055855;28;20442;-81
2023/12/13 09:35:48;;;;;;;4.93;4.43;;;16.90;68.80;;;;;;5056043;28;20431;-83
2023/12/13 09:38:16;;;;;;;6.37;5.30;;;16.90;68.70;;;;;;5058064;28;20461;-82
2023/12/13 09:40:45;;;;;;;6.23;5.10;;;16.90;68.50;;;;;;5057824;28;20508;-82
2023/12/13 09:43:13;;;;;;;5.20;4.73;;;16.90;68.60;;;;;;5058926;28;20453;-82
2023/12/13 09:45:42;;;;;;;5.80;5.20;;;16.90;68.80;;;;;;5088637;28;20469;-81
2023/12/13 09:48:10;;;;;;;5.20;4.70;;;16.90;68.50;;;;;;5085740;28;20452;-83
2023/12/13 09:50:38;;;;;;;6.67;5.60;;;16.90;68.70;;;;;;5086340;28;20473;-82
2023/12/13 09:53:06;;;;;;;7.00;5.70;;;16.90;68.70;;;;;;5079068;28;20453;-82
2023/12/13 09:55:35;;;;;;;5.00;4.60;;;16.90;68.70;;;;;;5083218;28;20470;-82
2023/12/13 09:58:08;;;;;;;5.83;5.23;;;16.90;68.50;;;;;;5096853;28;20939;-82
2023/12/13 10:00:41;;;;;;;8.20;5.73;;;16.90;68.50;;;;;;5096439;28;20473;-82
2023/12/13 10:03:14;;;;;;;5.97;5.37;;;16.90;68.80;;;;;;5097789;28;20464;-81
2023/12/13 10:05:42;;;;;;;6.23;5.63;;;16.90;68.50;;;;;;5097923;28;20472;-83
2023/12/13 10:08:13;;;;;;;8.17;6.30;;;17.00;68.80;;;;;;5096621;28;20468;-83
2023/12/13 10:10:43;;;;;;;6.80;5.83;;;16.90;68.50;;;;;;5079614;28;20470;-83
2023/12/13 10:13:11;;;;;;;5.87;5.27;;;17.00;69.00;;;;;;5062256;28;20469;-81
2023/12/13 10:15:39;;;;;;;6.63;5.90;;;16.90;68.70;;;;;;5061287;28;20438;-82
2023/12/13 10:18:08;;;;;;;7.17;5.93;;;17.00;68.50;;;;;;5060807;28;20953;-82
2023/12/13 10:20:38;;;;;;;6.17;5.57;;;16.90;68.80;;;;;;5070772;28;20466;-82
2023/12/13 10:23:06;;;;;;;6.30;5.30;;;16.90;68.40;;;;;;5069690;28;20511;-82
2023/12/13 10:25:36;;;;;;;7.20;6.20;;;16.90;68.70;;;;;;5077651;28;20446;-82
2023/12/13 10:28:14;;;;;;;6.33;5.70;;;16.90;68.70;;;;;;5071147;28;20442;-83
2023/12/13 10:30:43;;;;;;;6.43;5.80;;;16.90;68.60;;;;;;5069551;28;20552;-83
2023/12/13 10:33:11;;;;;;;7.00;6.30;;;16.90;68.70;;;;;;5069512;28;20445;-81
2023/12/13 10:35:44;;;;;;;9.20;5.87;;;16.90;68.50;;;;;;5068877;28;20954;-82
2023/12/13 10:38:14;;;;;;;8.17;5.70;;;16.90;68.70;;;;;;5074709;28;20530;-79
2023/12/13 10:40:42;;;;;;;8.20;6.50;;;16.90;68.70;;;;;;5074041;28;20474;-83
2023/12/13 10:43:11;;;;;;;7.23;6.00;;;16.90;68.60;;;;;;5074177;28;20452;-83
2023/12/13 10:45:40;;;;;;;6.40;5.67;;;16.90;68.60;;;;;;5079021;28;20473;-82
2023/12/13 10:48:09;;;;;;;6.87;6.00;;;16.90;68.80;;;;;;5090653;28;20437;-83
2023/12/13 10:50:37;;;;;;;6.80;5.77;;;17.00;69.00;;;;;;5079123;28;20470;-82
2023/12/13 10:53:07;;;;;;;6.40;5.70;;;17.00;68.90;;;;;;5072912;28;20461;-82
2023/12/13 10:55:35;;;;;;;6.53;5.70;;;17.00;68.50;;;;;;5070900;28;20446;-83
2023/12/13 10:58:03;;;;;;;6.80;5.90;;;17.00;69.00;;;;;;5069690;28;20447;-83
2023/12/13 11:00:32;;;;;;;7.03;6.33;;;17.00;68.90;;;;;;5068161;28;20462;-83
2023/12/13 11:03:09;;;;;;;6.50;5.70;;;17.00;68.80;;;;;;5071310;28;20446;-83
2023/12/13 11:05:38;;;;;;;6.03;5.50;;;16.90;68.80;;;;;;5070136;28;20945;-82
2023/12/13 11:08:16;;;;;;;6.57;5.97;;;17.00;68.90;;;;;;5070918;28;20495;-82
2023/12/13 11:10:59;;;;;;;7.77;5.60;;;17.00;68.90;;;;;;5077289;28;20465;-79
2023/12/13 11:13:27;;;;;;;7.20;6.10;;;17.00;69.00;;;;;;5076621;28;20459;-80
2023/12/13 11:15:56;;;;;;;6.90;6.20;;;17.00;68.70;;;;;;5083140;28;20448;-81
2023/12/13 11:18:25;;;;;;;6.20;5.60;;;17.00;68.70;;;;;;5076372;28;20495;-80
2023/12/13 11:20:54;;;;;;;6.50;5.60;;;17.00;69.00;;;;;;5076210;28;20477;-80
2023/12/13 11:23:26;;;;;;;6.37;5.70;;;17.10;69.00;;;;;;5061253;28;20508;-78
2023/12/13 11:25:55;;;;;;;14.37;6.53;;;17.10;69.00;;;;;;5075190;28;20421;-78
2023/12/13 11:28:24;;;;;;;7.80;5.93;;;17.10;68.90;;;;;;5066553;28;20499;-78
2023/12/13 11:30:54;;;;;;;7.77;6.17;;;17.10;68.80;;;;;;5075696;28;20523;-79
2023/12/13 11:33:23;;;;;;;6.20;5.60;;;17.10;68.90;;;;;;5077277;28;20410;-79
2023/12/13 11:35:51;;;;;;;7.93;6.60;;;17.10;68.60;;;;;;5074295;28;20442;-79
2023/12/13 11:38:19;;;;;;;6.57;5.93;;;17.00;68.70;;;;;;5056517;28;20430;-79
2023/12/13 11:40:49;;;;;;;6.87;5.87;;;17.00;69.00;;;;;;5071054;28;20457;-79
2023/12/13 11:43:17;;;;;;;5.90;5.40;;;17.00;68.70;;;;;;5076919;28;20434;-79
2023/12/13 11:45:49;;;;;;;6.17;5.60;;;17.00;69.10;;;;;;5076585;28;20441;-80
2023/12/13 11:48:18;;;;;;;6.40;5.73;;;17.10;69.10;;;;;;5080324;28;20538;-79
2023/12/13 11:50:47;;;;;;;6.27;5.60;;;17.10;69.00;;;;;;5084942;28;20461;-80
2023/12/13 11:53:15;;;;;;;6.87;5.80;;;17.10;69.00;;;;;;5076722;28;20438;-78
2023/12/13 11:55:44;;;;;;;6.13;5.53;;;17.10;69.10;;;;;;5070083;28;20450;-80
2023/12/13 11:58:15;;;;;;;6.20;5.70;;;17.10;69.00;;;;;;5073603;28;20441;-80
2023/12/13 12:00:44;;;;;;;6.20;5.60;;;17.10;69.00;;;;;;5073092;28;20461;-79
2023/12/13 12:03:12;;;;;;;6.70;6.00;;;17.10;68.90;;;;;;5076016;28;20460;-81
2023/12/13 12:05:47;;;;;;;6.63;5.80;;;17.10;69.10;;;;;;5076212;28;20465;-81
2023/12/13 12:08:23;;;;;;;8.83;6.00;;;17.10;68.90;;;;;;5075694;28;20465;-81
2023/12/13 12:10:52;;;;;;;6.30;5.60;;;17.10;68.90;;;;;;5078322;28;20461;-82
2023/12/13 12:13:22;;;;;;;7.90;6.20;;;17.10;69.00;;;;;;5071943;28;20544;-81
2023/12/13 12:15:53;;;;;;;5.53;5.03;;;17.10;68.70;;;;;;5080867;28;20457;-79
2023/12/13 12:18:21;;;;;;;7.17;6.27;;;17.10;68.90;;;;;;5073192;28;20822;-80
2023/12/13 12:20:49;;;;;;;6.63;5.47;;;17.10;68.70;;;;;;5068464;28;21035;-80
2023/12/13 12:23:18;;;;;;;6.40;5.77;;;17.10;68.90;;;;;;5087197;22;20554;-77
2023/12/13 12:25:46;;;;;;;6.30;5.50;;;17.10;68.90;;;;;;5066044;28;20435;-77
2023/12/13 12:28:14;;;;;;;5.97;5.40;;;17.10;69.00;;;;;;5068080;28;20634;-77
2023/12/13 12:30:45;;;;;;;7.67;5.47;;;17.10;68.90;;;;;;5065094;28;20499;-77
2023/12/13 12:33:13;;;;;;;6.13;5.23;;;17.10;68.90;;;;;;5062871;28;20545;-77
2023/12/13 12:35:41;;;;;;;6.60;5.80;;;17.10;68.90;;;;;;5066332;28;20453;-77
2023/12/13 12:38:09;;;;;;;7.03;5.57;;;17.10;69.00;;;;;;5053936;28;20441;-77
2023/12/13 12:40:37;;;;;;;7.10;5.20;;;17.10;68.80;;;;;;5069904;28;20441;-76
2023/12/13 12:43:05;;;;;;;6.37;5.53;;;17.20;69.10;;;;;;5072032;28;20528;-77
2023/12/13 12:45:33;;;;;;;7.40;5.30;;;17.20;69.00;;;;;;5071636;28;20446;-78
2023/12/13 12:48:03;;;;;;;6.17;5.00;;;17.20;69.20;;;;;;5065273;28;20471;-77
2023/12/13 12:50:31;;;;;;;5.43;4.93;;;17.10;68.90;;;;;;5054103;28;20865;-77
2023/12/13 12:52:59;;;;;;;5.93;5.03;;;17.10;69.10;;;;;;5066337;28;20460;-77
2023/12/13 12:55:27;;;;;;;5.53;5.03;;;17.20;69.30;;;;;;5062184;28;20447;-78
2023/12/13 12:57:55;;;;;;;7.13;5.20;;;17.10;69.20;;;;;;5076496;28;20441;-80
2023/12/13 13:00:23;;;;;;;6.60;4.67;;;17.10;69.00;;;;;;5059792;28;20537;-79
2023/12/13 13:02:52;;;;;;;5.70;4.20;;;17.10;69.20;;;;;;5073467;28;20491;-80
2023/12/13 13:05:22;;;;;;;6.73;4.97;;;17.10;69.10;;;;;;5063599;28;20435;-79
2023/12/13 13:07:51;;;;;;;5.23;4.73;;;17.10;69.20;;;;;;5066156;28;20520;-79
2023/12/13 13:10:20;;;;;;;4.93;4.47;;;17.10;69.20;;;;;;5072666;28;20488;-77
2023/12/13 13:12:48;;;;;;;5.00;4.50;;;17.10;69.00;;;;;;5062550;28;20462;-77
2023/12/13 13:15:16;;;;;;;5.50;4.93;;;17.10;68.60;;;;;;5063733;28;20481;-75